シンガポール/チャンギ の空港の天気 - METARとTAF

シンガポール・チャンギ国際空港 ( WSSS / SIN ) - シンガポール Changi
飛行場実況気象(Metar)
観測時間08/05 10:00 SGT (08/05 02:00 UTC)
風向・風速南 3m/s
視程10km以上
天気現象
少しの雲 雲底高度 550m
全天の8割程度の雲 雲底高度 9140m
気温30℃
湿度70%
気圧1009hPa
METARWSSS 050200Z 18006KT 160V240 9999 FEW018 BKN300 30/24 Q1009 NOSIG
過去の天気等 Google飛行場航空写真 Wunderground天気予報

過去48時間のMETAR

飛行場予報(TAF)
発表時間: 8/05 07:00 SGT (8/04 23:00 UTC)
予報対象時間: 5日8時 SGT ~ 6日14時 SGT
風向・風速南 5m/s
視程10km以上
少しの雲 雲底高度 460m
全天の4割程度の雲 雲底高度 610m
TAF WSSS 042300Z 0500/0606 17009KT 9999 FEW015 SCT020